sensor_id;sensor_type;location;lat;lon;timestamp;temperature;humidity
24470;DHT22;12635;50.852;5.676;2023-04-01T00:00:49;8.70;99.90
24470;DHT22;12635;50.852;5.676;2023-04-01T00:03:17;8.80;99.90
24470;DHT22;12635;50.852;5.676;2023-04-01T00:05:44;8.70;99.90
24470;DHT22;12635;50.852;5.676;2023-04-01T00:08:11;8.70;99.90
24470;DHT22;12635;50.852;5.676;2023-04-01T00:10:39;8.70;99.90
24470;DHT22;12635;50.852;5.676;2023-04-01T00:13:06;8.80;99.90
24470;DHT22;12635;50.852;5.676;2023-04-01T00:15:33;8.80;99.90
24470;DHT22;12635;50.852;5.676;2023-04-01T00:18:00;8.80;99.90
24470;DHT22;12635;50.852;5.676;2023-04-01T00:20:27;8.80;99.90
24470;DHT22;12635;50.852;5.676;2023-04-01T00:22:54;8.80;99.90
24470;DHT22;12635;50.852;5.676;2023-04-01T00:25:21;8.70;99.90
24470;DHT22;12635;50.852;5.676;2023-04-01T00:27:50;8.80;99.90
24470;DHT22;12635;50.852;5.676;2023-04-01T00:30:17;8.80;99.90
24470;DHT22;12635;50.852;5.676;2023-04-01T00:32:44;8.80;99.90
24470;DHT22;12635;50.852;5.676;2023-04-01T00:35:11;8.80;99.90
24470;DHT22;12635;50.852;5.676;2023-04-01T00:37:38;8.70;99.90
24470;DHT22;12635;50.852;5.676;2023-04-01T00:40:06;8.70;99.90
24470;DHT22;12635;50.852;5.676;2023-04-01T00:42:33;8.80;99.90
24470;DHT22;12635;50.852;5.676;2023-04-01T00:47:43;8.70;99.90
24470;DHT22;12635;50.852;5.676;2023-04-01T00:50:10;8.70;99.90
24470;DHT22;12635;50.852;5.676;2023-04-01T00:52:37;8.70;99.90
24470;DHT22;12635;50.852;5.676;2023-04-01T00:55:04;8.70;99.90
24470;DHT22;12635;50.852;5.676;2023-04-01T00:57:34;8.70;99.90
24470;DHT22;12635;50.852;5.676;2023-04-01T01:00:03;8.70;99.90
24470;DHT22;12635;50.852;5.676;2023-04-01T01:02:32;8.70;99.90
24470;DHT22;12635;50.852;5.676;2023-04-01T01:05:01;8.70;99.90
24470;DHT22;12635;50.852;5.676;2023-04-01T01:07:29;8.80;99.90
24470;DHT22;12635;50.852;5.676;2023-04-01T01:10:02;8.70;99.90
24470;DHT22;12635;50.852;5.676;2023-04-01T01:12:30;8.70;99.90
24470;DHT22;12635;50.852;5.676;2023-04-01T01:15:00;8.70;99.90
24470;DHT22;12635;50.852;5.676;2023-04-01T01:17:33;8.70;99.90
24470;DHT22;12635;50.852;5.676;2023-04-01T01:20:12;8.70;99.90
24470;DHT22;12635;50.852;5.676;2023-04-01T01:22:47;8.70;99.90
24470;DHT22;12635;50.852;5.676;2023-04-01T01:25:24;8.70;99.90
24470;DHT22;12635;50.852;5.676;2023-04-01T01:27:54;8.70;99.90
24470;DHT22;12635;50.852;5.676;2023-04-01T01:30:28;8.70;99.90
24470;DHT22;12635;50.852;5.676;2023-04-01T01:33:05;8.60;99.90
24470;DHT22;12635;50.852;5.676;2023-04-01T01:35:36;8.60;99.90
24470;DHT22;12635;50.852;5.676;2023-04-01T01:38:04;8.70;99.90
24470;DHT22;12635;50.852;5.676;2023-04-01T01:40:33;8.70;99.90
24470;DHT22;12635;50.852;5.676;2023-04-01T01:43:03;8.60;99.90
24470;DHT22;12635;50.852;5.676;2023-04-01T01:45:30;8.70;99.90
24470;DHT22;12635;50.852;5.676;2023-04-01T01:47:58;8.70;99.90
24470;DHT22;12635;50.852;5.676;2023-04-01T01:50:26;8.60;99.90
24470;DHT22;12635;50.852;5.676;2023-04-01T01:53:01;8.60;99.90
24470;DHT22;12635;50.852;5.676;2023-04-01T01:55:30;8.60;99.90
24470;DHT22;12635;50.852;5.676;2023-04-01T01:57:57;8.60;99.90
24470;DHT22;12635;50.852;5.676;2023-04-01T02:00:25;8.60;99.90
24470;DHT22;12635;50.852;5.676;2023-04-01T02:02:52;8.60;99.90
24470;DHT22;12635;50.852;5.676;2023-04-01T02:05:21;8.60;99.90
24470;DHT22;12635;50.852;5.676;2023-04-01T02:07:49;8.60;99.90
24470;DHT22;12635;50.852;5.676;2023-04-01T02:10:20;8.60;99.90
24470;DHT22;12635;50.852;5.676;2023-04-01T02:12:49;8.60;99.90
24470;DHT22;12635;50.852;5.676;2023-04-01T02:15:17;8.60;99.90
24470;DHT22;12635;50.852;5.676;2023-04-01T02:17:45;8.60;99.90
24470;DHT22;12635;50.852;5.676;2023-04-01T02:20:15;8.60;99.90
24470;DHT22;12635;50.852;5.676;2023-04-01T02:22:43;8.60;99.90
24470;DHT22;12635;50.852;5.676;2023-04-01T02:25:12;8.60;99.90
24470;DHT22;12635;50.852;5.676;2023-04-01T02:27:41;8.60;99.90
24470;DHT22;12635;50.852;5.676;2023-04-01T02:30:09;8.60;99.90
24470;DHT22;12635;50.852;5.676;2023-04-01T02:32:37;8.60;99.90
24470;DHT22;12635;50.852;5.676;2023-04-01T02:35:05;8.60;99.90
24470;DHT22;12635;50.852;5.676;2023-04-01T02:37:32;8.60;99.90
24470;DHT22;12635;50.852;5.676;2023-04-01T02:39:59;8.60;99.90
24470;DHT22;12635;50.852;5.676;2023-04-01T02:42:27;8.60;99.90
24470;DHT22;12635;50.852;5.676;2023-04-01T02:44:55;8.60;99.90
24470;DHT22;12635;50.852;5.676;2023-04-01T02:47:22;8.60;99.90
24470;DHT22;12635;50.852;5.676;2023-04-01T02:49:48;8.60;99.90
24470;DHT22;12635;50.852;5.676;2023-04-01T02:52:15;8.70;99.90
24470;DHT22;12635;50.852;5.676;2023-04-01T02:54:42;8.60;99.90
24470;DHT22;12635;50.852;5.676;2023-04-01T02:57:09;8.60;99.90
24470;DHT22;12635;50.852;5.676;2023-04-01T02:59:36;8.60;99.90
24470;DHT22;12635;50.852;5.676;2023-04-01T03:02:04;8.60;99.90
24470;DHT22;12635;50.852;5.676;2023-04-01T03:04:32;8.60;99.90
24470;DHT22;12635;50.852;5.676;2023-04-01T03:06:59;8.70;99.90
24470;DHT22;12635;50.852;5.676;2023-04-01T03:09:26;8.70;99.90
24470;DHT22;12635;50.852;5.676;2023-04-01T03:11:54;8.70;99.90
24470;DHT22;12635;50.852;5.676;2023-04-01T03:14:20;8.70;99.90
24470;DHT22;12635;50.852;5.676;2023-04-01T03:16:47;8.70;99.90
24470;DHT22;12635;50.852;5.676;2023-04-01T03:19:16;8.80;99.90
24470;DHT22;12635;50.852;5.676;2023-04-01T03:21:43;8.80;99.90
24470;DHT22;12635;50.852;5.676;2023-04-01T03:24:09;8.90;99.90
24470;DHT22;12635;50.852;5.676;2023-04-01T03:26:36;8.80;99.90
24470;DHT22;12635;50.852;5.676;2023-04-01T03:29:04;8.80;99.90
24470;DHT22;12635;50.852;5.676;2023-04-01T03:31:31;8.80;99.90
24470;DHT22;12635;50.852;5.676;2023-04-01T03:33:58;8.70;99.90
24470;DHT22;12635;50.852;5.676;2023-04-01T03:36:26;8.80;99.90
24470;DHT22;12635;50.852;5.676;2023-04-01T03:38:53;8.80;99.90
24470;DHT22;12635;50.852;5.676;2023-04-01T03:41:20;8.80;99.90
24470;DHT22;12635;50.852;5.676;2023-04-01T03:43:46;8.70;99.90
24470;DHT22;12635;50.852;5.676;2023-04-01T03:46:16;8.70;99.90
24470;DHT22;12635;50.852;5.676;2023-04-01T03:48:43;8.70;99.90
24470;DHT22;12635;50.852;5.676;2023-04-01T03:51:10;8.70;99.90
24470;DHT22;12635;50.852;5.676;2023-04-01T03:53:38;8.70;99.90
24470;DHT22;12635;50.852;5.676;2023-04-01T03:56:05;8.70;99.90
24470;DHT22;12635;50.852;5.676;2023-04-01T03:58:33;8.70;99.90
24470;DHT22;12635;50.852;5.676;2023-04-01T04:01:00;8.70;99.90
24470;DHT22;12635;50.852;5.676;2023-04-01T04:03:27;8.70;99.90
24470;DHT22;12635;50.852;5.676;2023-04-01T04:05:53;8.70;99.90
24470;DHT22;12635;50.852;5.676;2023-04-01T04:08:21;8.70;99.90
24470;DHT22;12635;50.852;5.676;2023-04-01T04:10:55;8.70;99.90
24470;DHT22;12635;50.852;5.676;2023-04-01T04:13:22;8.70;99.90
24470;DHT22;12635;50.852;5.676;2023-04-01T04:15:49;8.70;99.90
24470;DHT22;12635;50.852;5.676;2023-04-01T04:18:16;8.70;99.90
24470;DHT22;12635;50.852;5.676;2023-04-01T04:20:43;8.70;99.90
24470;DHT22;12635;50.852;5.676;2023-04-01T04:23:10;8.60;99.90
24470;DHT22;12635;50.852;5.676;2023-04-01T04:25:37;8.60;99.90
24470;DHT22;12635;50.852;5.676;2023-04-01T04:28:06;8.60;99.90
24470;DHT22;12635;50.852;5.676;2023-04-01T04:30:32;8.60;99.90
24470;DHT22;12635;50.852;5.676;2023-04-01T04:32:59;8.60;99.90
24470;DHT22;12635;50.852;5.676;2023-04-01T04:35:27;8.50;99.90
24470;DHT22;12635;50.852;5.676;2023-04-01T04:37:53;8.50;99.90
24470;DHT22;12635;50.852;5.676;2023-04-01T04:40:20;8.50;99.90
24470;DHT22;12635;50.852;5.676;2023-04-01T04:42:47;8.50;99.90
24470;DHT22;12635;50.852;5.676;2023-04-01T04:45:15;8.60;99.90
24470;DHT22;12635;50.852;5.676;2023-04-01T04:47:42;8.50;99.90
24470;DHT22;12635;50.852;5.676;2023-04-01T04:50:09;8.60;99.90
24470;DHT22;12635;50.852;5.676;2023-04-01T04:52:37;8.60;99.90
24470;DHT22;12635;50.852;5.676;2023-04-01T04:55:04;8.50;99.90
24470;DHT22;12635;50.852;5.676;2023-04-01T04:57:31;8.50;99.90
24470;DHT22;12635;50.852;5.676;2023-04-01T04:59:58;8.50;99.90
24470;DHT22;12635;50.852;5.676;2023-04-01T05:02:26;8.60;99.90
24470;DHT22;12635;50.852;5.676;2023-04-01T05:04:53;8.50;99.90
24470;DHT22;12635;50.852;5.676;2023-04-01T05:07:20;8.50;99.90
24470;DHT22;12635;50.852;5.676;2023-04-01T05:09:47;8.50;99.90
24470;DHT22;12635;50.852;5.676;2023-04-01T05:12:13;8.50;99.90
24470;DHT22;12635;50.852;5.676;2023-04-01T05:14:40;8.50;99.90
24470;DHT22;12635;50.852;5.676;2023-04-01T05:17:08;8.50;99.90
24470;DHT22;12635;50.852;5.676;2023-04-01T05:19:37;8.50;99.90
24470;DHT22;12635;50.852;5.676;2023-04-01T05:22:04;8.50;99.90
24470;DHT22;12635;50.852;5.676;2023-04-01T05:24:31;8.50;99.90
24470;DHT22;12635;50.852;5.676;2023-04-01T05:26:58;8.50;99.90
24470;DHT22;12635;50.852;5.676;2023-04-01T05:29:25;8.50;99.90
24470;DHT22;12635;50.852;5.676;2023-04-01T05:31:52;8.50;99.90
24470;DHT22;12635;50.852;5.676;2023-04-01T05:34:19;8.50;99.90
24470;DHT22;12635;50.852;5.676;2023-04-01T05:36:47;8.50;99.90
24470;DHT22;12635;50.852;5.676;2023-04-01T05:39:14;8.50;99.90
24470;DHT22;12635;50.852;5.676;2023-04-01T05:41:41;8.50;99.90
24470;DHT22;12635;50.852;5.676;2023-04-01T05:44:10;8.50;99.90
24470;DHT22;12635;50.852;5.676;2023-04-01T05:46:38;8.50;99.90
24470;DHT22;12635;50.852;5.676;2023-04-01T05:49:04;8.50;99.90
24470;DHT22;12635;50.852;5.676;2023-04-01T05:51:31;8.50;99.90
24470;DHT22;12635;50.852;5.676;2023-04-01T05:53:59;8.40;99.90
24470;DHT22;12635;50.852;5.676;2023-04-01T05:56:26;8.40;99.90
24470;DHT22;12635;50.852;5.676;2023-04-01T05:58:53;8.40;99.90
24470;DHT22;12635;50.852;5.676;2023-04-01T06:01:20;8.50;99.90
24470;DHT22;12635;50.852;5.676;2023-04-01T06:03:47;8.50;99.90
24470;DHT22;12635;50.852;5.676;2023-04-01T06:06:14;8.50;99.90
24470;DHT22;12635;50.852;5.676;2023-04-01T06:08:41;8.50;99.90
24470;DHT22;12635;50.852;5.676;2023-04-01T06:11:16;8.50;99.90
24470;DHT22;12635;50.852;5.676;2023-04-01T06:13:47;8.50;99.90
24470;DHT22;12635;50.852;5.676;2023-04-01T06:16:21;8.50;99.90
24470;DHT22;12635;50.852;5.676;2023-04-01T06:21:47;8.50;99.90
24470;DHT22;12635;50.852;5.676;2023-04-01T06:24:27;8.50;99.90
24470;DHT22;12635;50.852;5.676;2023-04-01T06:26:58;8.50;99.90
24470;DHT22;12635;50.852;5.676;2023-04-01T06:29:46;8.50;99.90
24470;DHT22;12635;50.852;5.676;2023-04-01T06:32:18;8.50;99.90
24470;DHT22;12635;50.852;5.676;2023-04-01T06:34:54;8.50;99.90
24470;DHT22;12635;50.852;5.676;2023-04-01T06:37:27;8.50;99.90
24470;DHT22;12635;50.852;5.676;2023-04-01T06:40:19;8.50;99.90
24470;DHT22;12635;50.852;5.676;2023-04-01T06:42:56;8.50;99.90
24470;DHT22;12635;50.852;5.676;2023-04-01T06:45:29;8.50;99.90
24470;DHT22;12635;50.852;5.676;2023-04-01T06:48:02;8.50;99.90
24470;DHT22;12635;50.852;5.676;2023-04-01T06:50:34;8.50;99.90
24470;DHT22;12635;50.852;5.676;2023-04-01T06:53:09;8.50;99.90
24470;DHT22;12635;50.852;5.676;2023-04-01T06:55:39;8.50;99.90
24470;DHT22;12635;50.852;5.676;2023-04-01T06:58:13;8.50;99.90
24470;DHT22;12635;50.852;5.676;2023-04-01T07:00:45;8.50;99.90
24470;DHT22;12635;50.852;5.676;2023-04-01T07:03:16;8.50;99.90
24470;DHT22;12635;50.852;5.676;2023-04-01T07:05:45;8.50;99.90
24470;DHT22;12635;50.852;5.676;2023-04-01T07:08:13;8.60;99.90
24470;DHT22;12635;50.852;5.676;2023-04-01T07:10:43;8.50;99.90
24470;DHT22;12635;50.852;5.676;2023-04-01T07:13:15;8.60;99.90
24470;DHT22;12635;50.852;5.676;2023-04-01T07:15:44;8.60;99.90
24470;DHT22;12635;50.852;5.676;2023-04-01T07:18:14;8.50;99.90
24470;DHT22;12635;50.852;5.676;2023-04-01T07:20:42;8.50;99.90
24470;DHT22;12635;50.852;5.676;2023-04-01T07:23:10;8.60;99.90
24470;DHT22;12635;50.852;5.676;2023-04-01T07:25:43;8.60;99.90
24470;DHT22;12635;50.852;5.676;2023-04-01T07:28:12;8.50;99.90
24470;DHT22;12635;50.852;5.676;2023-04-01T07:30:43;8.60;99.90
24470;DHT22;12635;50.852;5.676;2023-04-01T07:33:12;8.50;99.90
24470;DHT22;12635;50.852;5.676;2023-04-01T07:35:43;8.60;99.90
24470;DHT22;12635;50.852;5.676;2023-04-01T07:38:16;8.50;99.90
24470;DHT22;12635;50.852;5.676;2023-04-01T07:40:48;8.60;99.90
24470;DHT22;12635;50.852;5.676;2023-04-01T07:43:29;8.50;99.90
24470;DHT22;12635;50.852;5.676;2023-04-01T07:46:01;8.60;99.90
24470;DHT22;12635;50.852;5.676;2023-04-01T07:48:30;8.60;99.90
24470;DHT22;12635;50.852;5.676;2023-04-01T07:51:00;8.60;99.90
24470;DHT22;12635;50.852;5.676;2023-04-01T07:53:30;8.60;99.90
24470;DHT22;12635;50.852;5.676;2023-04-01T07:56:00;8.60;99.90
24470;DHT22;12635;50.852;5.676;2023-04-01T07:58:29;8.60;99.90
24470;DHT22;12635;50.852;5.676;2023-04-01T08:01:04;8.60;99.90
24470;DHT22;12635;50.852;5.676;2023-04-01T08:03:35;8.60;99.90
24470;DHT22;12635;50.852;5.676;2023-04-01T08:06:05;8.60;99.90
24470;DHT22;12635;50.852;5.676;2023-04-01T08:08:36;8.60;99.90
24470;DHT22;12635;50.852;5.676;2023-04-01T08:11:08;8.60;99.90
24470;DHT22;12635;50.852;5.676;2023-04-01T08:13:39;8.60;99.90
24470;DHT22;12635;50.852;5.676;2023-04-01T08:16:11;8.70;99.90
24470;DHT22;12635;50.852;5.676;2023-04-01T08:18:45;8.60;99.90
24470;DHT22;12635;50.852;5.676;2023-04-01T08:21:14;8.70;99.90
24470;DHT22;12635;50.852;5.676;2023-04-01T08:23:43;8.70;99.90
24470;DHT22;12635;50.852;5.676;2023-04-01T08:26:13;8.70;99.90
24470;DHT22;12635;50.852;5.676;2023-04-01T08:28:43;8.60;99.90
24470;DHT22;12635;50.852;5.676;2023-04-01T08:31:13;8.60;99.90
24470;DHT22;12635;50.852;5.676;2023-04-01T08:33:42;8.60;99.90
24470;DHT22;12635;50.852;5.676;2023-04-01T08:36:11;8.60;99.90
24470;DHT22;12635;50.852;5.676;2023-04-01T08:38:41;8.60;99.90
24470;DHT22;12635;50.852;5.676;2023-04-01T08:41:16;8.70;99.90
24470;DHT22;12635;50.852;5.676;2023-04-01T08:43:51;8.60;99.90
24470;DHT22;12635;50.852;5.676;2023-04-01T08:46:32;8.70;99.90
24470;DHT22;12635;50.852;5.676;2023-04-01T08:49:05;8.70;99.90
24470;DHT22;12635;50.852;5.676;2023-04-01T08:54:27;8.60;99.90
24470;DHT22;12635;50.852;5.676;2023-04-01T08:56:57;8.70;99.90
24470;DHT22;12635;50.852;5.676;2023-04-01T08:59:30;8.80;99.90
24470;DHT22;12635;50.852;5.676;2023-04-01T09:02:04;8.80;99.90
24470;DHT22;12635;50.852;5.676;2023-04-01T09:04:39;8.80;99.90
24470;DHT22;12635;50.852;5.676;2023-04-01T09:07:14;8.80;99.90
24470;DHT22;12635;50.852;5.676;2023-04-01T09:12:37;8.70;99.90
24470;DHT22;12635;50.852;5.676;2023-04-01T09:15:23;8.90;99.90
24470;DHT22;12635;50.852;5.676;2023-04-01T09:20:47;9.20;99.90
24470;DHT22;12635;50.852;5.676;2023-04-01T09:26:14;10.80;99.90
24470;DHT22;12635;50.852;5.676;2023-04-01T09:28:46;10.90;99.90
24470;DHT22;12635;50.852;5.676;2023-04-01T09:31:23;10.90;99.90
24470;DHT22;12635;50.852;5.676;2023-04-01T09:34:03;10.90;99.90
24470;DHT22;12635;50.852;5.676;2023-04-01T09:36:42;10.90;99.90
24470;DHT22;12635;50.852;5.676;2023-04-01T09:39:18;10.80;99.90
24470;DHT22;12635;50.852;5.676;2023-04-01T09:41:54;11.00;99.90
24470;DHT22;12635;50.852;5.676;2023-04-01T09:44:25;10.80;99.90
24470;DHT22;12635;50.852;5.676;2023-04-01T09:47:00;10.90;99.90
24470;DHT22;12635;50.852;5.676;2023-04-01T09:49:42;10.80;99.90
24470;DHT22;12635;50.852;5.676;2023-04-01T09:52:18;10.70;99.90
24470;DHT22;12635;50.852;5.676;2023-04-01T09:54:52;10.60;99.90
24470;DHT22;12635;50.852;5.676;2023-04-01T10:00:10;10.60;99.90
24470;DHT22;12635;50.852;5.676;2023-04-01T10:02:50;10.80;99.90
24470;DHT22;12635;50.852;5.676;2023-04-01T10:05:38;10.70;99.90
24470;DHT22;12635;50.852;5.676;2023-04-01T10:08:21;10.60;99.90
24470;DHT22;12635;50.852;5.676;2023-04-01T10:11:04;10.80;99.90
24470;DHT22;12635;50.852;5.676;2023-04-01T10:19:39;11.00;99.90
24470;DHT22;12635;50.852;5.676;2023-04-01T10:25:05;10.90;99.90
24470;DHT22;12635;50.852;5.676;2023-04-01T10:27:44;11.10;99.90
24470;DHT22;12635;50.852;5.676;2023-04-01T10:33:19;10.90;99.90
24470;DHT22;12635;50.852;5.676;2023-04-01T10:35:59;10.80;99.90
24470;DHT22;12635;50.852;5.676;2023-04-01T10:38:42;10.90;99.90
24470;DHT22;12635;50.852;5.676;2023-04-01T10:46:45;10.80;99.90
24470;DHT22;12635;50.852;5.676;2023-04-01T10:54:56;11.10;99.90
24470;DHT22;12635;50.852;5.676;2023-04-01T10:57:50;11.00;99.90
24470;DHT22;12635;50.852;5.676;2023-04-01T11:00:32;11.10;99.90
24470;DHT22;12635;50.852;5.676;2023-04-01T11:03:14;11.00;99.90
24470;DHT22;12635;50.852;5.676;2023-04-01T11:08:49;11.40;99.90
24470;DHT22;12635;50.852;5.676;2023-04-01T11:11:40;11.20;99.90
24470;DHT22;12635;50.852;5.676;2023-04-01T11:17:03;11.30;99.90
24470;DHT22;12635;50.852;5.676;2023-04-01T11:19:41;11.40;99.90
24470;DHT22;12635;50.852;5.676;2023-04-01T11:22:18;11.30;99.90
24470;DHT22;12635;50.852;5.676;2023-04-01T11:25:02;11.30;99.90
24470;DHT22;12635;50.852;5.676;2023-04-01T11:27:48;11.20;99.90
24470;DHT22;12635;50.852;5.676;2023-04-01T11:30:21;11.20;99.90
24470;DHT22;12635;50.852;5.676;2023-04-01T11:32:53;11.20;99.90
24470;DHT22;12635;50.852;5.676;2023-04-01T11:35:42;11.10;99.90
24470;DHT22;12635;50.852;5.676;2023-04-01T11:38:21;11.20;99.90
24470;DHT22;12635;50.852;5.676;2023-04-01T11:40:51;11.20;99.90
24470;DHT22;12635;50.852;5.676;2023-04-01T11:43:22;11.20;99.90
24470;DHT22;12635;50.852;5.676;2023-04-01T11:45:53;11.30;99.90
24470;DHT22;12635;50.852;5.676;2023-04-01T11:48:31;11.40;99.90
24470;DHT22;12635;50.852;5.676;2023-04-01T11:53:46;11.30;99.90
24470;DHT22;12635;50.852;5.676;2023-04-01T11:56:21;11.30;99.90
24470;DHT22;12635;50.852;5.676;2023-04-01T11:59:04;11.50;99.90
24470;DHT22;12635;50.852;5.676;2023-04-01T12:01:36;11.40;99.90
24470;DHT22;12635;50.852;5.676;2023-04-01T12:04:19;11.60;99.90
24470;DHT22;12635;50.852;5.676;2023-04-01T12:06:52;11.70;99.90
24470;DHT22;12635;50.852;5.676;2023-04-01T12:09:24;11.50;99.90
24470;DHT22;12635;50.852;5.676;2023-04-01T12:11:54;11.70;99.90
24470;DHT22;12635;50.852;5.676;2023-04-01T12:14:26;11.40;99.90
24470;DHT22;12635;50.852;5.676;2023-04-01T12:16:56;11.40;99.90
24470;DHT22;12635;50.852;5.676;2023-04-01T12:19:27;11.40;99.90
24470;DHT22;12635;50.852;5.676;2023-04-01T12:22:02;11.50;99.90
24470;DHT22;12635;50.852;5.676;2023-04-01T12:24:42;11.50;99.90
24470;DHT22;12635;50.852;5.676;2023-04-01T12:32:35;11.50;99.90
24470;DHT22;12635;50.852;5.676;2023-04-01T12:35:13;11.30;99.90
24470;DHT22;12635;50.852;5.676;2023-04-01T12:37:46;11.30;99.90
24470;DHT22;12635;50.852;5.676;2023-04-01T12:40:34;11.40;99.90
24470;DHT22;12635;50.852;5.676;2023-04-01T12:43:07;11.50;99.90
24470;DHT22;12635;50.852;5.676;2023-04-01T12:45:40;11.50;99.90
24470;DHT22;12635;50.852;5.676;2023-04-01T12:48:15;11.50;99.90
24470;DHT22;12635;50.852;5.676;2023-04-01T12:50:50;11.60;99.90
24470;DHT22;12635;50.852;5.676;2023-04-01T12:53:25;11.60;99.90
24470;DHT22;12635;50.852;5.676;2023-04-01T12:55:56;11.70;99.90
24470;DHT22;12635;50.852;5.676;2023-04-01T12:58:29;11.60;99.90
24470;DHT22;12635;50.852;5.676;2023-04-01T13:01:16;11.50;99.90
24470;DHT22;12635;50.852;5.676;2023-04-01T13:03:50;11.50;99.90
24470;DHT22;12635;50.852;5.676;2023-04-01T13:06:21;11.70;99.90
24470;DHT22;12635;50.852;5.676;2023-04-01T13:08:52;11.70;99.90
24470;DHT22;12635;50.852;5.676;2023-04-01T13:11:22;11.60;99.90
24470;DHT22;12635;50.852;5.676;2023-04-01T13:14:03;11.60;99.90
24470;DHT22;12635;50.852;5.676;2023-04-01T13:16:33;11.70;99.90
24470;DHT22;12635;50.852;5.676;2023-04-01T13:19:02;11.50;99.90
24470;DHT22;12635;50.852;5.676;2023-04-01T13:21:34;11.50;99.90
24470;DHT22;12635;50.852;5.676;2023-04-01T13:24:07;11.40;99.90
24470;DHT22;12635;50.852;5.676;2023-04-01T13:26:39;11.50;99.90
24470;DHT22;12635;50.852;5.676;2023-04-01T13:29:10;11.50;99.90
24470;DHT22;12635;50.852;5.676;2023-04-01T13:31:41;11.40;99.90
24470;DHT22;12635;50.852;5.676;2023-04-01T13:34:21;11.30;99.90
24470;DHT22;12635;50.852;5.676;2023-04-01T13:36:54;11.40;99.90
24470;DHT22;12635;50.852;5.676;2023-04-01T13:39:29;11.40;99.90
24470;DHT22;12635;50.852;5.676;2023-04-01T13:42:03;11.30;99.90
24470;DHT22;12635;50.852;5.676;2023-04-01T13:44:36;11.00;99.90
24470;DHT22;12635;50.852;5.676;2023-04-01T13:47:10;11.10;99.90
24470;DHT22;12635;50.852;5.676;2023-04-01T13:52:38;10.80;99.90
24470;DHT22;12635;50.852;5.676;2023-04-01T13:55:11;10.90;99.90
24470;DHT22;12635;50.852;5.676;2023-04-01T14:00:38;10.80;99.90
24470;DHT22;12635;50.852;5.676;2023-04-01T14:03:26;10.80;99.90
24470;DHT22;12635;50.852;5.676;2023-04-01T14:08:42;11.10;99.90
24470;DHT22;12635;50.852;5.676;2023-04-01T14:11:16;11.30;99.90
24470;DHT22;12635;50.852;5.676;2023-04-01T14:13:46;10.90;99.90
24470;DHT22;12635;50.852;5.676;2023-04-01T14:16:23;10.40;99.90
24470;DHT22;12635;50.852;5.676;2023-04-01T14:21:40;10.40;99.90
24470;DHT22;12635;50.852;5.676;2023-04-01T14:24:14;10.30;99.90
24470;DHT22;12635;50.852;5.676;2023-04-01T14:26:55;10.40;99.90
24470;DHT22;12635;50.852;5.676;2023-04-01T14:29:24;10.30;99.90
24470;DHT22;12635;50.852;5.676;2023-04-01T14:32:01;10.10;99.90
24470;DHT22;12635;50.852;5.676;2023-04-01T14:34:36;10.00;99.90
24470;DHT22;12635;50.852;5.676;2023-04-01T14:37:08;10.00;99.90
24470;DHT22;12635;50.852;5.676;2023-04-01T14:39:43;10.00;99.90
24470;DHT22;12635;50.852;5.676;2023-04-01T14:44:57;10.10;99.90
24470;DHT22;12635;50.852;5.676;2023-04-01T14:47:33;9.80;99.90
24470;DHT22;12635;50.852;5.676;2023-04-01T14:50:05;9.80;99.90
24470;DHT22;12635;50.852;5.676;2023-04-01T14:52:36;9.90;99.90
24470;DHT22;12635;50.852;5.676;2023-04-01T14:55:11;9.90;99.90
24470;DHT22;12635;50.852;5.676;2023-04-01T14:57:44;9.90;99.90
24470;DHT22;12635;50.852;5.676;2023-04-01T15:00:24;9.80;99.90
24470;DHT22;12635;50.852;5.676;2023-04-01T15:02:54;9.90;99.90
24470;DHT22;12635;50.852;5.676;2023-04-01T15:05:27;9.80;99.90
24470;DHT22;12635;50.852;5.676;2023-04-01T15:08:01;9.80;99.90
24470;DHT22;12635;50.852;5.676;2023-04-01T15:10:37;10.00;99.90
24470;DHT22;12635;50.852;5.676;2023-04-01T15:13:10;9.90;99.90
24470;DHT22;12635;50.852;5.676;2023-04-01T15:15:41;9.90;99.90
24470;DHT22;12635;50.852;5.676;2023-04-01T15:18:12;9.90;99.90
24470;DHT22;12635;50.852;5.676;2023-04-01T15:20:48;9.70;99.90
24470;DHT22;12635;50.852;5.676;2023-04-01T15:23:20;9.70;99.90
24470;DHT22;12635;50.852;5.676;2023-04-01T15:25:51;9.60;99.90
24470;DHT22;12635;50.852;5.676;2023-04-01T15:28:25;9.60;99.90
24470;DHT22;12635;50.852;5.676;2023-04-01T15:30:56;9.50;99.90
24470;DHT22;12635;50.852;5.676;2023-04-01T15:33:46;9.50;99.90
24470;DHT22;12635;50.852;5.676;2023-04-01T15:36:19;9.50;99.90
24470;DHT22;12635;50.852;5.676;2023-04-01T15:38:51;9.60;99.90
24470;DHT22;12635;50.852;5.676;2023-04-01T15:41:21;9.60;99.90
24470;DHT22;12635;50.852;5.676;2023-04-01T15:43:49;9.60;99.90
24470;DHT22;12635;50.852;5.676;2023-04-01T15:46:23;9.60;99.90
24470;DHT22;12635;50.852;5.676;2023-04-01T15:49:00;9.60;99.90
24470;DHT22;12635;50.852;5.676;2023-04-01T15:51:31;9.70;99.90
24470;DHT22;12635;50.852;5.676;2023-04-01T15:54:23;9.70;99.90
24470;DHT22;12635;50.852;5.676;2023-04-01T15:56:53;9.80;99.90
24470;DHT22;12635;50.852;5.676;2023-04-01T15:59:35;9.80;99.90
24470;DHT22;12635;50.852;5.676;2023-04-01T16:02:07;9.80;99.90
24470;DHT22;12635;50.852;5.676;2023-04-01T16:04:49;9.80;99.90
24470;DHT22;12635;50.852;5.676;2023-04-01T16:07:21;10.00;99.90
24470;DHT22;12635;50.852;5.676;2023-04-01T16:09:53;9.80;99.90
24470;DHT22;12635;50.852;5.676;2023-04-01T16:12:28;9.80;99.90
24470;DHT22;12635;50.852;5.676;2023-04-01T16:14:59;9.80;99.90
24470;DHT22;12635;50.852;5.676;2023-04-01T16:17:36;9.90;99.90
24470;DHT22;12635;50.852;5.676;2023-04-01T16:20:14;10.00;99.90
24470;DHT22;12635;50.852;5.676;2023-04-01T16:22:45;10.00;99.90
24470;DHT22;12635;50.852;5.676;2023-04-01T16:25:20;10.10;99.90
24470;DHT22;12635;50.852;5.676;2023-04-01T16:27:56;10.10;99.90
24470;DHT22;12635;50.852;5.676;2023-04-01T16:30:26;10.10;99.90
24470;DHT22;12635;50.852;5.676;2023-04-01T16:33:00;10.20;99.90
24470;DHT22;12635;50.852;5.676;2023-04-01T16:35:36;10.10;99.90
24470;DHT22;12635;50.852;5.676;2023-04-01T16:38:05;9.90;99.90
24470;DHT22;12635;50.852;5.676;2023-04-01T16:40:37;9.90;99.90
24470;DHT22;12635;50.852;5.676;2023-04-01T16:43:11;9.80;99.90
24470;DHT22;12635;50.852;5.676;2023-04-01T16:45:40;9.60;99.90
24470;DHT22;12635;50.852;5.676;2023-04-01T16:48:11;9.60;99.90
24470;DHT22;12635;50.852;5.676;2023-04-01T16:50:41;9.60;99.90
24470;DHT22;12635;50.852;5.676;2023-04-01T16:53:14;9.60;99.90
24470;DHT22;12635;50.852;5.676;2023-04-01T16:55:46;9.50;99.90
24470;DHT22;12635;50.852;5.676;2023-04-01T16:58:18;9.50;99.90
24470;DHT22;12635;50.852;5.676;2023-04-01T17:00:48;9.50;99.90
24470;DHT22;12635;50.852;5.676;2023-04-01T17:03:16;9.50;99.90
24470;DHT22;12635;50.852;5.676;2023-04-01T17:05:51;9.50;99.90
24470;DHT22;12635;50.852;5.676;2023-04-01T17:08:22;9.40;99.90
24470;DHT22;12635;50.852;5.676;2023-04-01T17:10:53;9.40;99.90
24470;DHT22;12635;50.852;5.676;2023-04-01T17:13:29;9.30;99.90
24470;DHT22;12635;50.852;5.676;2023-04-01T17:16:02;9.30;99.90
24470;DHT22;12635;50.852;5.676;2023-04-01T17:18:33;9.30;99.90
24470;DHT22;12635;50.852;5.676;2023-04-01T17:21:06;9.20;99.90